MMTC

Details ICAO MMTC (TRC)
Name TORREON INTL
Region Mexico
Timezone America/Monterrey (UTC-6.0)
Plans Departing 22
Arriving 21
Stats Elevation 3,688 ft / 1,124 m (AMSL)
Location 25.565639° -103.405389°
Runways 2
Magnetic Variation 6.452° E
Sunrise 2017-12-15 13:33:44 UTC / 2017-12-15 07:33:44 Local
Sunset 2017-12-16 00:06:52 UTC / 2017-12-15 18:06:52 Local
Advertisement - Login to hide

Runways

ID Width Length Bearing (true) Bearing (mag) Surface Threshold Offset Overrun Length
08 98 ft / 30 m 5,688 ft / 1,734 m 90.71° 84.26° Asphalt 984 ft / 300 m 0 ft / 0 m
12 148 ft / 45 m 9,032 ft / 2,753 m 135.94° 129.49° Asphalt 0 ft / 0 m 185 ft / 56 m
26 98 ft / 30 m 5,688 ft / 1,734 m 270.72° 264.27° Asphalt 0 ft / 0 m 0 ft / 0 m
30 148 ft / 45 m 9,032 ft / 2,753 m 315.95° 309.50° Asphalt 0 ft / 0 m 185 ft / 56 m

Map

Weather


0- 5 10 15 20 25 30 35+ Temperature / ° C

Clouds and Precipitation
Forecast for 2017-12-15 18:00 UTC. Updated an hour ago

Ground ~20,000 ft ~40,000 ft Winds

METAR

MMTC 151745Z 04006KT 5SM -RA BKN010 OVC080 09/07 A3024 RMK SLP225 52023 940 60035 8/62/ -RAB00

TAF

TAF MMTC 151736Z 1518/1618 06015KT 4SM -RA BKN010 OVC080 TEMPO 1518/1521 3SM -RA FM160100 04006KT 5SM -RA BKN015 OVC080 FM161000 00000KT 3SM -RA BKN010 OVC040 FM161600 00000KT 6SM -RA BKN015 BKN080

Frequencies

Tower 118.50 MHz TWR
Approach 119.50 MHz APP
Warning: Do not use this data for real-world aviation or navigation. No guarantee of current accuracy is given.